Time;durP1;ratioP1;P1;durP2;ratioP2;P2;SDS_P1;SDS_P2;PMS_P1;PMS_P2;Temp;Humidity;BMP_temperature;BMP_pressure;BME280_temperature;BME280_humidity;BME280_pressure;Samples;Min_cycle;Max_cycle;Signal;HPM_P1;HPM_P2
2021/01/10 00:00:08;;;;;;;24.42;15.57;;;;;;;4.28;62.25;102472.53;4922622;28;122911;-70
2021/01/10 00:02:34;;;;;;;32.38;16.48;;;;;;;4.28;62.11;102477.78;4941555;28;114442;-69
2021/01/10 00:05:01;;;;;;;28.10;15.88;;;;;;;4.27;62.35;102473.38;4935018;28;115229;-69
2021/01/10 00:07:28;;;;;;;31.63;15.55;;;;;;;4.24;62.13;102476.00;4921154;28;123564;-69
2021/01/10 00:09:54;;;;;;;30.17;15.43;;;;;;;4.24;62.34;102476.00;4919996;28;122971;-69
2021/01/10 00:12:23;;;;;;;29.42;15.63;;;;;;;4.23;62.42;102469.00;4938429;28;114420;-69
2021/01/10 00:14:50;;;;;;;27.48;15.20;;;;;;;4.23;62.31;102471.63;4917740;28;113458;-69
2021/01/10 00:17:17;;;;;;;28.42;16.02;;;;;;;4.20;62.05;102466.34;4935029;28;124085;-70
2021/01/10 00:19:46;;;;;;;32.05;15.63;;;;;;;4.18;62.16;102466.34;4904375;28;122732;-69
2021/01/10 00:22:14;;;;;;;24.50;15.57;;;;;;;4.18;62.34;102470.69;4937622;28;115585;-69
2021/01/10 00:24:41;;;;;;;29.08;16.15;;;;;;;4.16;62.35;102468.06;4921883;28;114071;-71
2021/01/10 00:27:11;;;;;;;26.50;16.27;;;;;;;4.14;62.08;102468.91;4941484;28;124481;-68
2021/01/10 00:29:39;;;;;;;26.30;16.52;;;;;;;4.12;62.19;102465.41;4921432;28;123355;-68
2021/01/10 00:32:06;;;;;;;26.25;16.58;;;;;;;4.08;62.50;102460.13;4940108;28;114710;-69
2021/01/10 00:34:33;;;;;;;32.22;16.63;;;;;;;4.07;62.50;102462.75;4938014;28;113665;-69
2021/01/10 00:37:06;;;;;;;30.83;17.35;;;;;;;4.06;62.35;102467.09;4905606;28;122199;-68
2021/01/10 00:39:33;;;;;;;28.25;16.58;;;;;;;4.05;62.34;102462.75;4926606;28;124485;-69
2021/01/10 00:42:08;;;;;;;28.50;17.65;;;;;;;4.03;62.18;102461.84;4941492;28;114355;-69
2021/01/10 00:44:36;;;;;;;30.75;17.17;;;;;;;4.02;62.09;102465.34;4934768;28;113874;-69
2021/01/10 00:47:03;;;;;;;27.55;16.70;;;;;;;4.01;62.16;102478.41;4920596;28;123194;-68
2021/01/10 00:49:31;;;;;;;27.83;15.75;;;;;;;3.98;62.19;102463.56;4932081;28;124676;-69
2021/01/10 00:51:58;;;;;;;32.78;17.08;;;;;;;3.98;62.42;102468.78;4919424;28;114059;-69
2021/01/10 00:54:26;;;;;;;28.20;16.20;;;;;;;3.97;62.45;102466.16;4930997;28;113728;-68
2021/01/10 00:56:52;;;;;;;32.70;16.25;;;;;;;3.95;62.47;102463.50;4927377;28;124846;-69
2021/01/10 00:59:19;;;;;;;30.05;16.00;;;;;;;3.96;62.24;102464.41;4921350;28;123996;-69
2021/01/10 01:01:47;;;;;;;33.38;17.30;;;;;;;3.94;62.46;102464.41;4918402;28;113452;-69
2021/01/10 01:04:16;;;;;;;30.15;16.45;;;;;;;3.94;62.39;102472.25;4914825;28;113717;-69
2021/01/10 01:06:43;;;;;;;29.95;16.40;;;;;;;3.93;62.33;102461.75;4916857;28;123238;-69
2021/01/10 01:09:10;;;;;;;28.55;15.68;;;;;;;3.92;62.42;102463.50;4913178;28;123315;-69
2021/01/10 01:11:39;;;;;;;31.08;16.25;;;;;;;3.93;62.46;102469.63;4930232;28;115502;-69
2021/01/10 01:14:11;;;;;;;27.58;15.40;;;;;;;3.91;62.47;102466.97;4916260;28;114956;-69
2021/01/10 01:16:40;;;;;;;29.20;15.98;;;;;;;3.92;62.47;102463.50;4932155;28;124240;-69
2021/01/10 01:19:07;;;;;;;26.67;15.32;;;;;;;3.92;62.64;102468.75;4913290;28;124267;-69
2021/01/10 01:21:34;;;;;;;28.42;16.17;;;;;;;3.92;62.58;102474.00;4915368;28;113674;-69
2021/01/10 01:24:03;;;;;;;25.52;15.05;;;;;;;3.92;62.73;102474.00;4932998;28;114010;-69
2021/01/10 01:26:30;;;;;;;27.13;15.82;;;;;;;3.94;62.79;102476.59;4918317;28;123177;-69
2021/01/10 01:28:56;;;;;;;27.15;15.07;;;;;;;3.95;62.68;102478.38;4935898;28;124580;-70
2021/01/10 01:31:26;;;;;;;26.77;16.13;;;;;;;3.96;62.69;102470.53;4916765;28;114047;-68
2021/01/10 01:33:54;;;;;;;26.65;15.38;;;;;;;3.96;62.52;102470.53;4933518;28;114263;-68
2021/01/10 01:36:27;;;;;;;30.23;15.30;;;;;;;3.96;62.28;102475.78;4913413;28;124279;-68
2021/01/10 01:38:59;;;;;;;31.83;15.60;;;;;;;3.97;62.63;102477.50;4923898;28;125349;-68
2021/01/10 01:41:27;;;;;;;29.58;16.35;;;;;;;3.96;62.37;102475.78;4932862;28;114486;-68
2021/01/10 01:43:54;;;;;;;27.45;15.70;;;;;;;3.96;62.64;102475.78;4918509;28;113503;-68
2021/01/10 01:46:27;;;;;;;24.95;16.23;;;;;;;3.94;62.57;102464.41;4930649;28;124400;-69
2021/01/10 01:48:56;;;;;;;27.95;16.48;;;;;;;3.95;62.56;102468.75;4932103;28;124750;-69
2021/01/10 01:51:24;;;;;;;27.52;16.55;;;;;;;3.95;62.62;102468.75;4930590;28;114302;-69
2021/01/10 01:53:50;;;;;;;28.85;16.10;;;;;;;3.96;62.43;102473.16;4931922;28;115055;-69
2021/01/10 01:56:17;;;;;;;26.17;15.68;;;;;;;3.94;62.56;102467.03;4914514;28;123256;-69
2021/01/10 01:59:01;;;;;;;29.25;16.05;;;;;;;3.94;62.48;102467.03;4926254;28;123904;-69
2021/01/10 02:01:30;;;;;;;27.67;15.80;;;;;;;3.95;62.30;102467.88;4914053;28;115496;-69
2021/01/10 02:04:17;;;;;;;29.45;15.43;;;;;;;3.93;62.31;102470.50;4912429;28;115294;-70
2021/01/10 02:07:13;;;;;;;26.35;15.38;;;;;;;3.93;62.32;102475.72;4914596;28;123097;-70
2021/01/10 02:09:42;;;;;;;29.23;14.18;;;;;;;3.92;62.26;102468.75;4900333;28;123837;-70
2021/01/10 02:12:14;;;;;;;26.02;14.18;;;;;;;3.88;62.32;102466.94;4915769;28;114611;-69
2021/01/10 02:14:53;;;;;;;22.83;14.48;;;;;;;3.85;62.22;102461.69;4932512;28;114549;-69
2021/01/10 02:17:20;;;;;;;25.55;15.25;;;;;;;3.84;61.92;102460.81;4922971;28;124653;-70
2021/01/10 02:19:56;;;;;;;25.55;14.60;;;;;;;3.80;61.94;102463.38;4933310;28;124135;-69
2021/01/10 02:22:31;;;;;;;21.77;14.70;;;;;;;3.78;61.80;102460.75;4914916;28;113842;-69
2021/01/10 02:24:58;;;;;;;28.42;15.15;;;;;;;3.76;61.73;102458.97;4912425;28;114210;-68
2021/01/10 02:27:25;;;;;;;21.80;14.55;;;;;;;3.74;62.07;102464.22;4915284;28;121913;-69
2021/01/10 02:29:52;;;;;;;27.77;15.55;;;;;;;3.71;61.90;102464.16;4928106;28;123879;-69
2021/01/10 02:32:21;;;;;;;29.23;15.95;;;;;;;3.69;62.08;102461.56;4931923;28;114755;-68
2021/01/10 02:34:50;;;;;;;31.60;17.35;;;;;;;3.67;62.04;102463.28;4914041;28;112848;-69
2021/01/10 02:37:53;;;;;;;29.60;17.20;;;;;;;3.63;62.23;102451.00;4927061;28;124577;-68
2021/01/10 02:40:40;;;;;;;35.40;17.48;;;;;;;3.64;62.22;102447.53;4928007;28;123979;-70
2021/01/10 02:43:21;;;;;;;31.63;17.73;;;;;;;3.63;62.39;102445.75;4931382;28;114382;-69
2021/01/10 02:45:51;;;;;;;28.38;17.23;;;;;;;3.62;62.35;102444.00;4931261;28;114521;-69
2021/01/10 02:48:19;;;;;;;31.25;17.77;;;;;;;3.62;62.26;102449.25;4915810;28;124460;-68
2021/01/10 02:50:49;;;;;;;32.70;17.63;;;;;;;3.65;62.61;102444.03;4933561;28;96801;-69
2021/01/10 02:53:16;;;;;;;31.48;17.40;;;;;;;3.67;62.66;102442.31;4912470;28;114454;-69
2021/01/10 02:55:42;;;;;;;31.88;18.02;;;;;;;3.69;62.73;102443.22;4915341;28;113974;-68
2021/01/10 02:58:15;;;;;;;29.67;17.92;;;;;;;3.72;62.58;102437.13;4911917;28;123263;-68
2021/01/10 03:00:43;;;;;;;27.67;16.65;;;;;;;3.74;62.68;102434.50;4924033;28;124311;-68
2021/01/10 03:03:11;;;;;;;29.63;18.33;;;;;;;3.76;62.63;102430.16;4921338;28;115127;-69
2021/01/10 03:05:39;;;;;;;29.55;17.27;;;;;;;3.76;62.46;102424.91;4889970;28;113587;-69
2021/01/10 03:08:06;;;;;;;27.08;16.88;;;;;;;3.78;62.72;102428.44;4912843;28;123887;-68
2021/01/10 03:10:34;;;;;;;28.17;16.95;;;;;;;3.78;62.32;102431.06;4919973;28;124141;-69
2021/01/10 03:13:01;;;;;;;32.15;17.17;;;;;;;3.78;62.66;102423.19;4927527;28;114080;-69
2021/01/10 03:15:30;;;;;;;28.00;17.73;;;;;;;3.78;62.50;102429.28;4914336;28;113628;-68
2021/01/10 03:18:15;;;;;;;33.58;18.15;;;;;;;3.77;62.51;102421.41;4913957;28;123677;-69
2021/01/10 03:20:41;;;;;;;28.00;18.23;;;;;;;3.77;62.29;102426.66;4945342;22;124479;-71
2021/01/10 03:23:08;;;;;;;32.45;18.45;;;;;;;3.77;62.25;102421.41;4960456;28;114103;-71
2021/01/10 03:25:34;;;;;;;29.23;17.77;;;;;;;3.77;62.42;102431.91;4934285;28;113174;-70
2021/01/10 03:28:01;;;;;;;31.25;18.33;;;;;;;3.78;62.48;102428.44;4949421;28;124092;-71
2021/01/10 03:30:28;;;;;;;36.33;19.35;;;;;;;3.77;62.51;102426.66;4925451;28;122756;-71
2021/01/10 03:32:55;;;;;;;31.92;18.70;;;;;;;3.78;62.22;102423.19;4944502;28;115186;-71
2021/01/10 03:35:21;;;;;;;28.77;18.48;;;;;;;3.75;62.21;102428.38;4928121;28;113874;-71
2021/01/10 03:37:48;;;;;;;30.38;17.48;;;;;;;3.74;62.43;102426.66;4906205;28;123686;-71
2021/01/10 03:40:16;;;;;;;30.73;17.85;;;;;;;3.74;62.35;102426.66;4929608;28;124886;-71
2021/01/10 03:42:43;;;;;;;32.80;16.88;;;;;;;3.76;62.55;102430.16;4942766;28;115232;-70
2021/01/10 03:45:11;;;;;;;30.45;17.00;;;;;;;3.76;62.27;102420.56;4922622;28;114329;-71
2021/01/10 03:47:38;;;;;;;26.45;17.40;;;;;;;3.77;62.45;102426.66;4921613;28;122978;-71
2021/01/10 03:50:07;;;;;;;34.65;18.20;;;;;;;3.77;62.50;102426.66;4936525;28;123878;-71
2021/01/10 03:52:34;;;;;;;29.85;17.58;;;;;;;3.78;62.56;102423.19;4929902;28;114032;-71
2021/01/10 03:55:06;;;;;;;36.40;18.50;;;;;;;3.78;62.51;102417.94;4921639;28;114594;-71
2021/01/10 03:57:36;;;;;;;30.08;17.38;;;;;;;3.81;62.48;102417.97;4918716;28;124286;-71
2021/01/10 04:00:08;;;;;;;30.52;18.55;;;;;;;3.82;62.47;102419.72;4908814;28;122878;-71
2021/01/10 04:02:36;;;;;;;26.42;16.40;;;;;;;3.84;62.33;102418.00;4927058;28;114398;-71
2021/01/10 04:05:04;;;;;;;28.13;16.88;;;;;;;3.85;62.47;102417.13;4916014;28;113651;-71
2021/01/10 04:07:30;;;;;;;29.77;17.52;;;;;;;3.87;62.61;102418.91;4939902;28;124100;-71
2021/01/10 04:09:58;;;;;;;33.33;17.83;;;;;;;3.88;62.20;102414.53;4921406;28;124425;-71
2021/01/10 04:12:25;;;;;;;29.48;17.63;;;;;;;3.89;62.53;102411.06;4949719;28;115109;-71
2021/01/10 04:14:57;;;;;;;31.27;18.23;;;;;;;3.90;62.55;102407.56;4933610;28;114131;-71
2021/01/10 04:17:25;;;;;;;33.50;17.15;;;;;;;3.91;62.19;102404.06;4938420;28;123211;-71
2021/01/10 04:19:53;;;;;;;23.63;16.58;;;;;;;3.93;62.46;102407.59;4928793;28;124625;-71
2021/01/10 04:22:20;;;;;;;32.72;17.00;;;;;;;3.95;62.58;102404.97;4942681;28;114495;-71
2021/01/10 04:24:48;;;;;;;25.17;16.80;;;;;;;3.95;62.64;102395.38;4920454;28;112769;-71
2021/01/10 04:27:14;;;;;;;30.33;17.70;;;;;;;3.98;62.44;102400.63;4922719;28;124306;-71
2021/01/10 04:29:41;;;;;;;29.23;18.23;;;;;;;3.98;62.43;102395.41;4921884;28;122318;-72
2021/01/10 04:32:07;;;;;;;29.73;18.05;;;;;;;3.98;62.50;102405.00;4936398;28;115007;-71
2021/01/10 04:34:35;;;;;;;31.20;17.40;;;;;;;3.98;62.42;102405.88;4936187;28;115151;-71
2021/01/10 04:37:01;;;;;;;27.17;16.55;;;;;;;3.99;62.41;102423.34;4932064;28;124718;-71
2021/01/10 04:39:28;;;;;;;25.05;16.15;;;;;;;3.97;62.47;102408.50;4935883;28;123826;-71
2021/01/10 04:41:55;;;;;;;28.52;17.40;;;;;;;3.96;62.37;102412.84;4926916;28;113349;-71
2021/01/10 04:44:23;;;;;;;28.35;17.77;;;;;;;3.97;62.39;102409.34;4924712;28;113988;-71
2021/01/10 04:46:50;;;;;;;35.72;18.35;;;;;;;3.97;62.40;102409.34;4933615;28;123788;-71
2021/01/10 04:49:19;;;;;;;30.45;17.50;;;;;;;3.98;62.66;102403.25;4923128;28;124104;-71
2021/01/10 04:51:46;;;;;;;30.95;17.70;;;;;;;3.99;62.48;102407.63;4931161;28;114689;-71
2021/01/10 04:54:14;;;;;;;27.15;16.63;;;;;;;4.02;62.54;102405.03;4905110;28;113692;-72
2021/01/10 04:56:43;;;;;;;29.83;17.92;;;;;;;4.04;62.69;102405.06;4937116;28;123792;-71
2021/01/10 04:59:09;;;;;;;31.95;17.27;;;;;;;4.07;62.50;102403.34;4916146;28;123737;-71
2021/01/10 05:01:43;;;;;;;28.65;17.27;;;;;;;4.07;62.57;102405.94;4945766;28;114524;-71
2021/01/10 05:04:11;;;;;;;30.10;17.03;;;;;;;4.10;62.65;102405.94;4937892;28;114123;-72
2021/01/10 05:06:38;;;;;;;32.55;17.30;;;;;;;4.12;62.65;102410.34;4920083;28;123323;-71
2021/01/10 05:09:06;;;;;;;26.05;16.63;;;;;;;4.12;62.48;102402.47;4934089;28;124224;-71
2021/01/10 05:11:35;;;;;;;31.63;18.27;;;;;;;4.13;62.43;102405.13;4934877;28;114734;-71
2021/01/10 05:14:03;;;;;;;32.60;16.90;;;;;;;4.15;62.62;102410.38;4909384;28;114053;-71
2021/01/10 05:16:32;;;;;;;30.63;17.10;;;;;;;4.15;62.46;102402.50;4910974;28;123253;-71
2021/01/10 05:19:01;;;;;;;30.17;17.85;;;;;;;4.16;62.68;102404.25;4947028;28;124708;-71
2021/01/10 05:21:27;;;;;;;30.15;17.30;;;;;;;4.15;62.34;102408.63;4922689;28;114862;-71
2021/01/10 05:23:55;;;;;;;32.00;18.20;;;;;;;4.16;62.58;102399.00;4915183;28;114401;-71
2021/01/10 05:26:30;;;;;;;32.30;18.40;;;;;;;4.17;62.73;102400.78;4943000;28;124510;-71
2021/01/10 05:28:57;;;;;;;32.15;17.20;;;;;;;4.18;62.68;102407.75;4926597;28;124177;-71
2021/01/10 05:31:31;;;;;;;33.55;18.02;;;;;;;4.17;62.42;102395.53;4922115;28;114688;-71
2021/01/10 05:33:59;;;;;;;33.30;18.92;;;;;;;4.17;62.34;102385.03;4922638;28;114246;-71
2021/01/10 05:36:38;;;;;;;31.70;17.27;;;;;;;4.15;62.32;102394.66;4947445;28;123921;-71
2021/01/10 05:39:24;;;;;;;33.85;17.83;;;;;;;4.13;62.62;102384.16;4945716;28;124153;-71
2021/01/10 05:41:56;;;;;;;27.33;16.67;;;;;;;4.13;62.52;102383.28;4916144;28;114253;-71
2021/01/10 05:44:27;;;;;;;28.55;17.20;;;;;;;4.14;62.45;102379.75;4940923;28;114481;-71
2021/01/10 05:47:14;;;;;;;30.33;18.27;;;;;;;4.12;62.66;102378.88;4945371;28;124449;-71
2021/01/10 05:49:47;;;;;;;34.13;18.05;;;;;;;4.12;62.39;102389.38;4938901;28;124519;-71
2021/01/10 05:52:15;;;;;;;35.70;17.63;;;;;;;4.10;62.48;102379.72;4938665;28;116376;-71
2021/01/10 05:54:46;;;;;;;30.80;17.45;;;;;;;4.09;62.77;102388.50;4945307;28;114000;-71
2021/01/10 05:57:15;;;;;;;31.33;17.60;;;;;;;4.12;62.39;102392.00;4945725;28;124715;-71
2021/01/10 05:59:45;;;;;;;29.70;17.67;;;;;;;4.13;62.69;102393.75;4928877;28;123832;-71
2021/01/10 06:02:11;;;;;;;30.58;18.10;;;;;;;4.15;62.38;102386.78;4915709;28;114552;-71
2021/01/10 06:04:38;;;;;;;29.02;18.58;;;;;;;4.15;62.41;102381.53;4944267;28;114628;-71
2021/01/10 06:07:05;;;;;;;30.60;19.17;;;;;;;4.16;62.47;102378.91;4923211;28;123331;-71
2021/01/10 06:09:44;;;;;;;25.88;17.10;;;;;;;4.16;62.34;102388.53;4926612;28;123207;-71
2021/01/10 06:12:21;;;;;;;31.45;17.27;;;;;;;4.16;62.29;102388.53;4927774;28;115331;-71
2021/01/10 06:14:50;;;;;;;29.40;17.42;;;;;;;4.17;62.34;102390.28;4948389;28;114999;-71
2021/01/10 06:17:17;;;;;;;29.50;17.73;;;;;;;4.16;62.31;102388.53;4946131;28;124559;-71
2021/01/10 06:19:45;;;;;;;28.63;17.55;;;;;;;4.17;62.39;102385.03;4931390;28;123055;-71
2021/01/10 06:22:18;;;;;;;29.98;18.38;;;;;;;4.16;62.23;102388.53;4945684;28;114154;-71
2021/01/10 06:24:46;;;;;;;30.58;18.52;;;;;;;4.18;62.18;102394.66;4931595;28;113826;-71
2021/01/10 06:27:36;;;;;;;32.80;18.55;;;;;;;4.15;62.15;102395.50;4929627;28;123376;-71
2021/01/10 06:30:03;;;;;;;33.08;18.20;;;;;;;4.17;62.35;102390.28;4949284;28;124256;-71
2021/01/10 06:32:30;;;;;;;29.30;17.92;;;;;;;4.18;62.17;102405.13;4942105;28;114861;-71
2021/01/10 06:35:00;;;;;;;33.70;18.95;;;;;;;4.18;62.16;102402.50;4930331;28;114241;-71
2021/01/10 06:37:28;;;;;;;31.35;18.38;;;;;;;4.18;62.30;102402.50;4942323;28;124750;-71
2021/01/10 06:39:57;;;;;;;29.92;19.05;;;;;;;4.19;62.39;102404.28;4914395;28;122205;-71
2021/01/10 06:42:29;;;;;;;30.77;18.92;;;;;;;4.19;62.32;102397.28;4937042;28;113834;-71
2021/01/10 06:44:58;;;;;;;34.90;19.35;;;;;;;4.21;62.47;102398.16;4928109;28;113537;-71
2021/01/10 06:47:25;;;;;;;35.42;20.05;;;;;;;4.23;62.51;102400.81;4928201;28;122966;-71
2021/01/10 06:49:52;;;;;;;36.22;19.23;;;;;;;4.25;62.31;102393.81;4949140;28;124157;-71
2021/01/10 06:52:23;;;;;;;30.95;19.35;;;;;;;4.28;62.45;102399.09;4929430;28;114219;-71
2021/01/10 06:54:50;;;;;;;30.20;19.42;;;;;;;4.30;62.60;102397.38;4917405;28;114019;-71
2021/01/10 06:57:17;;;;;;;39.10;20.95;;;;;;;4.30;62.65;102392.13;4927325;28;124177;-71
2021/01/10 06:59:59;;;;;;;32.03;20.52;;;;;;;4.32;62.34;102395.63;4931416;28;123274;-71
2021/01/10 07:02:26;;;;;;;31.35;19.30;;;;;;;4.32;62.19;102395.63;4933404;28;115254;-71
2021/01/10 07:04:54;;;;;;;37.50;20.38;;;;;;;4.34;62.36;102393.88;4935139;28;115977;-72
2021/01/10 07:07:35;;;;;;;35.25;20.10;;;;;;;4.34;62.54;102401.75;4937438;28;124759;-71
2021/01/10 07:10:04;;;;;;;32.58;18.90;;;;;;;4.36;62.56;102402.63;4933508;28;124579;-71
2021/01/10 07:12:31;;;;;;;37.35;19.80;;;;;;;4.38;62.33;102406.13;4930324;28;114056;-71
2021/01/10 07:15:17;;;;;;;32.97;20.40;;;;;;;4.39;62.52;102407.91;4926121;28;112985;-71
2021/01/10 07:18:03;;;;;;;33.63;19.70;;;;;;;4.42;62.31;102413.16;4914283;28;124039;-71
2021/01/10 07:20:39;;;;;;;28.45;18.08;;;;;;;4.42;62.56;102423.66;4926655;28;123350;-71
2021/01/10 07:23:29;;;;;;;31.63;20.20;;;;;;;4.41;62.25;102427.16;4938929;28;114859;-72
2021/01/10 07:25:57;;;;;;;36.78;18.63;;;;;;;4.41;62.46;102424.53;4941891;28;113839;-71
2021/01/10 07:28:32;;;;;;;34.22;20.65;;;;;;;4.39;62.44;102421.03;4919608;28;123945;-72
2021/01/10 07:31:07;;;;;;;33.70;21.48;;;;;;;4.40;62.49;102414.03;4930422;28;124099;-71
2021/01/10 07:33:34;;;;;;;34.55;20.65;;;;;;;4.41;62.37;102427.16;4925917;28;114881;-72
2021/01/10 07:36:02;;;;;;;38.05;21.00;;;;;;;4.42;62.45;102423.66;4917296;28;113032;-70
2021/01/10 07:38:31;;;;;;;35.50;20.33;;;;;;;4.42;62.29;102418.41;4920259;28;124074;-70
2021/01/10 07:41:27;;;;;;;32.53;20.27;;;;;;;4.40;62.39;102424.53;4926417;28;123608;-71
2021/01/10 07:43:56;;;;;;;32.08;19.30;;;;;;;4.38;62.13;102426.25;4934957;28;114054;-71
2021/01/10 07:46:51;;;;;;;32.40;19.80;;;;;;;4.35;62.29;102421.88;4927442;28;113859;-71
2021/01/10 07:49:19;;;;;;;36.53;20.30;;;;;;;4.35;62.43;102421.88;4895504;28;123411;-71
2021/01/10 07:51:46;;;;;;;31.42;20.05;;;;;;;4.34;62.48;102422.72;4933187;28;124665;-71
2021/01/10 07:54:17;;;;;;;31.75;19.83;;;;;;;4.34;62.40;102430.59;4928033;28;115362;-71
2021/01/10 07:56:44;;;;;;;31.05;19.15;;;;;;;4.36;62.33;102418.38;4909135;28;115508;-71
2021/01/10 07:59:17;;;;;;;31.63;20.30;;;;;;;4.36;62.37;102426.25;4910437;28;124540;-71
2021/01/10 08:02:02;;;;;;;31.77;19.80;;;;;;;4.37;62.47;102420.13;4942435;28;123935;-71
2021/01/10 08:04:30;;;;;;;33.63;19.92;;;;;;;4.39;62.43;102423.66;4939969;28;114734;-71
2021/01/10 08:06:57;;;;;;;32.03;20.40;;;;;;;4.38;62.50;102419.25;4912886;28;112926;-71
2021/01/10 08:09:30;;;;;;;36.78;20.52;;;;;;;4.38;62.53;102416.63;4917499;28;123021;-71
2021/01/10 08:11:58;;;;;;;32.03;20.50;;;;;;;4.39;62.51;102421.03;4947685;28;123406;-71
2021/01/10 08:14:24;;;;;;;33.35;20.50;;;;;;;4.40;62.74;102420.13;4935176;28;114272;-71
2021/01/10 08:16:51;;;;;;;33.67;21.17;;;;;;;4.41;62.36;102421.03;4917865;28;113205;-71
2021/01/10 08:19:18;;;;;;;32.10;20.55;;;;;;;4.43;62.68;102420.16;4931595;28;123845;-70
2021/01/10 08:21:45;;;;;;;31.80;20.05;;;;;;;4.44;62.72;102421.91;4931739;28;123929;-70
2021/01/10 08:24:14;;;;;;;36.10;20.20;;;;;;;4.47;62.67;102421.94;4934952;28;113962;-70
2021/01/10 08:26:43;;;;;;;36.50;19.65;;;;;;;4.50;62.74;102426.31;4935720;28;114611;-71
2021/01/10 08:29:10;;;;;;;31.45;19.15;;;;;;;4.52;62.68;102423.72;4941594;28;123380;-70
2021/01/10 08:31:38;;;;;;;32.50;20.15;;;;;;;4.53;62.69;102430.72;4940658;28;124077;-70
2021/01/10 08:34:08;;;;;;;35.53;20.23;;;;;;;4.53;62.68;102426.34;4941737;28;115857;-71
2021/01/10 08:36:36;;;;;;;28.85;18.60;;;;;;;4.56;62.46;102430.72;4925146;28;114503;-71
2021/01/10 08:39:12;;;;;;;30.85;19.88;;;;;;;4.56;62.55;102425.47;4893833;28;123266;-72
2021/01/10 08:41:43;;;;;;;29.93;19.37;;;;;;;4.57;62.39;102432.47;4940091;28;123093;-70
2021/01/10 08:44:21;;;;;;;31.52;19.30;;;;;;;4.57;62.58;102424.63;4915166;28;114406;-70
2021/01/10 08:46:49;;;;;;;32.33;19.38;;;;;;;4.58;62.19;102434.25;4941450;28;114919;-70
2021/01/10 08:49:22;;;;;;;29.25;19.35;;;;;;;4.58;62.35;102442.13;4937621;28;124354;-71
2021/01/10 08:51:49;;;;;;;29.90;19.88;;;;;;;4.57;62.51;102437.72;4933226;28;122901;-70
2021/01/10 08:54:18;;;;;;;28.40;19.58;;;;;;;4.56;62.65;102436.88;4930943;28;114728;-70
2021/01/10 08:56:50;;;;;;;33.92;19.92;;;;;;;4.55;62.74;102435.09;4896367;28;113023;-71
2021/01/10 08:59:19;;;;;;;33.33;19.98;;;;;;;4.60;62.84;102435.13;4916148;28;122630;-70
2021/01/10 09:01:50;;;;;;;30.65;20.15;;;;;;;4.63;62.59;102432.50;4923018;28;122834;-70
2021/01/10 09:04:17;;;;;;;30.30;19.60;;;;;;;4.66;62.58;102433.41;4921066;28;114962;-70
2021/01/10 09:06:59;;;;;;;31.08;19.90;;;;;;;4.68;62.51;102436.03;4926510;28;113372;-70
2021/01/10 09:09:31;;;;;;;32.15;19.73;;;;;;;4.72;62.57;102432.56;4894343;28;122293;-71
2021/01/10 09:12:03;;;;;;;34.97;20.05;;;;;;;4.76;62.80;102439.56;4911062;28;123566;-70
2021/01/10 09:14:41;;;;;;;31.88;19.30;;;;;;;4.77;62.79;102446.59;4938185;28;113994;-71
2021/01/10 09:17:10;;;;;;;30.23;20.10;;;;;;;4.81;62.50;102440.47;4937699;28;114452;-73
2021/01/10 09:19:37;;;;;;;28.85;19.23;;;;;;;4.84;62.95;102451.00;4945005;28;124298;-73
2021/01/10 09:22:04;;;;;;;31.42;20.10;;;;;;;4.87;62.92;102443.13;4931070;28;123010;-73
2021/01/10 09:24:32;;;;;;;31.92;20.52;;;;;;;4.90;62.82;102451.88;4943453;28;114610;-73
2021/01/10 09:27:14;;;;;;;30.60;19.27;;;;;;;4.92;62.51;102455.44;4934393;28;114272;-73
2021/01/10 09:29:41;;;;;;;30.83;20.05;;;;;;;4.95;62.75;102450.16;4897050;28;124108;-73
2021/01/10 09:32:19;;;;;;;33.00;20.88;;;;;;;4.97;62.94;102453.66;4911961;28;123257;-71
2021/01/10 09:34:54;;;;;;;36.15;20.50;;;;;;;5.01;62.90;102455.44;4936527;28;115206;-73
2021/01/10 09:37:29;;;;;;;32.60;20.92;;;;;;;5.04;62.98;102458.09;4933394;28;115676;-73
2021/01/10 09:40:10;;;;;;;37.85;21.33;;;;;;;5.05;62.69;102457.22;4936629;28;124220;-73
2021/01/10 09:42:45;;;;;;;35.72;20.55;;;;;;;5.05;62.94;102451.97;4927318;28;125049;-73
2021/01/10 09:45:13;;;;;;;32.85;21.23;;;;;;;5.08;62.88;102467.72;4927599;28;114393;-72
2021/01/10 09:47:49;;;;;;;34.55;20.75;;;;;;;5.10;62.79;102455.47;4911310;28;114504;-70
2021/01/10 09:50:16;;;;;;;31.48;20.83;;;;;;;5.10;62.80;102455.47;4922794;28;123886;-73
2021/01/10 09:52:50;;;;;;;32.38;19.80;;;;;;;5.12;62.82;102458.09;4927596;28;122376;-73
2021/01/10 09:55:18;;;;;;;37.38;21.80;;;;;;;5.15;62.71;102469.50;4910572;28;113804;-73
2021/01/10 09:57:45;;;;;;;33.25;21.50;;;;;;;5.16;62.76;102471.28;4920269;28;114057;-70
2021/01/10 10:00:15;;;;;;;38.80;22.75;;;;;;;5.18;62.65;102459.03;4931370;28;123984;-70
2021/01/10 10:02:45;;;;;;;34.08;22.52;;;;;;;5.20;62.73;102459.91;4928031;28;124124;-70
2021/01/10 10:05:17;;;;;;;35.95;22.00;;;;;;;5.23;62.66;102457.28;4932007;28;114429;-70
2021/01/10 10:07:49;;;;;;;38.63;22.58;;;;;;;5.23;62.72;102456.41;4915838;28;113817;-73
2021/01/10 10:10:26;;;;;;;38.13;22.83;;;;;;;5.26;62.72;102459.91;4922331;28;123508;-73
2021/01/10 10:12:54;;;;;;;39.83;22.63;;;;;;;5.30;63.04;102462.56;4935126;28;124348;-71
2021/01/10 10:15:22;;;;;;;37.40;22.65;;;;;;;5.33;62.76;102457.28;4926472;28;114737;-70
2021/01/10 10:17:49;;;;;;;33.75;23.20;;;;;;;5.32;62.87;102460.81;4949985;28;113930;-71
2021/01/10 10:20:16;;;;;;;40.30;23.73;;;;;;;5.34;62.98;102451.19;4950136;28;124250;-70
2021/01/10 10:22:44;;;;;;;40.47;23.83;;;;;;;5.36;62.97;102452.06;4928120;28;124093;-71
2021/01/10 10:25:12;;;;;;;40.03;23.05;;;;;;;5.39;63.10;102442.44;4942805;23;114662;-69
2021/01/10 10:27:57;;;;;;;41.10;22.55;;;;;;;5.44;62.82;102450.31;4932898;28;114917;-69
2021/01/10 10:30:24;;;;;;;37.40;23.48;;;;;;;5.47;63.11;102445.09;4923869;28;124220;-69
2021/01/10 10:32:50;;;;;;;33.45;22.90;;;;;;;5.52;63.19;102448.59;4933024;28;124090;-69
2021/01/10 10:35:17;;;;;;;45.53;24.40;;;;;;;5.58;63.17;102445.97;4905476;28;114935;-69
2021/01/10 10:37:44;;;;;;;42.00;24.98;;;;;;;5.63;63.40;102441.63;4903740;28;114111;-69
2021/01/10 10:40:12;;;;;;;38.20;23.67;;;;;;;5.72;63.25;102445.13;4923321;28;123911;-69
2021/01/10 10:42:39;;;;;;;37.70;24.13;;;;;;;5.78;63.47;102439.84;4916210;28;124296;-69
2021/01/10 10:45:06;;;;;;;38.72;24.40;;;;;;;5.86;63.35;102438.13;4907902;28;114933;-70
2021/01/10 10:47:33;;;;;;;39.47;24.10;;;;;;;5.95;63.64;102432.91;4897256;28;113791;-69
2021/01/10 10:49:59;;;;;;;39.10;24.13;;;;;;;6.04;63.81;102432.88;4904483;28;125182;-70
2021/01/10 10:52:26;;;;;;;42.35;25.30;;;;;;;6.17;63.73;102432.88;4918143;28;124914;-69
2021/01/10 10:54:53;;;;;;;43.47;24.73;;;;;;;6.27;63.52;102429.34;4909101;28;114525;-69
2021/01/10 10:57:19;;;;;;;37.83;24.48;;;;;;;6.37;63.53;102431.09;4919881;28;113869;-69
2021/01/10 10:59:46;;;;;;;37.85;23.98;;;;;;;6.46;63.77;102430.22;4918475;28;124313;-70
2021/01/10 11:02:12;;;;;;;35.97;23.85;;;;;;;6.56;63.28;102431.06;4907528;28;123872;-69
2021/01/10 11:04:45;;;;;;;36.33;23.80;;;;;;;6.66;63.46;102432.78;4909800;28;114198;-69
2021/01/10 11:07:16;;;;;;;32.22;22.88;;;;;;;6.77;63.61;102419.56;4916398;28;113533;-69
2021/01/10 11:09:45;;;;;;;36.97;22.60;;;;;;;6.87;63.36;102409.88;4930734;28;124088;-70
2021/01/10 11:12:13;;;;;;;33.25;22.45;;;;;;;6.95;63.59;102405.44;4923308;28;123784;-69
2021/01/10 11:14:41;;;;;;;31.38;21.60;;;;;;;7.06;63.47;102406.25;4916846;28;114299;-70
2021/01/10 11:17:13;;;;;;;33.85;20.75;;;;;;;7.14;63.48;102409.75;4888206;28;114843;-69
2021/01/10 11:19:41;;;;;;;30.92;20.15;;;;;;;7.24;63.14;102409.69;4899158;28;124341;-68
2021/01/10 11:22:08;;;;;;;27.55;18.63;;;;;;;7.30;62.69;102394.72;4914311;28;123673;-68